Weather History for KDBN - October, 2014

Change the Weather History Date:

Thursday, October 30, 2014

  Actual Average Record
Temperature  
Mean Temperature 60 °F -  
Max Temperature 73 °F 74 °F 86 °F (1940)
Min Temperature 46 °F 47 °F 25 °F (1952)
Degree Days  
Heating Degree Days 6    
Growing Degree Days 10 (Base 50)    
Moisture  
Dew Point 50 °F    
Average Humidity 75    
Maximum Humidity 100    
Minimum Humidity 35    
Precipitation  
Precipitation 0.00 in - - ()
Sea Level Pressure  
Sea Level Pressure 30.01 in    
Wind  
Wind Speed 5 mph (North)    
Max Wind Speed 8 mph    
Max Gust Speed -    
Visibility 10 miles    
Events      
Averages and records for this station are not official NWS values.
T = Trace of Precipitation, MM = Missing Value Source: NWS Daily Summary

Daily Weather History Graph

Daily Weather History Graph

Search for Another Location

Airport or City:

Trip Planner

Search our weather history database for the weather conditions in past years. The results will help you decide how hot, cold, wet, or windy it might be!

Date:

Astronomy

Oct. 30, 2014 Rise Set
Actual Time 7:47 AM EDT 6:43 PM EDT
Civil Twilight 7:22 AM EDT 7:08 PM EDT
Nautical Twilight 6:53 AM EDT 7:37 PM EDT
Astronomical Twilight 6:24 AM EDT 8:06 PM EDT
Moon 1:49 PM EDT (10/30) No Moon Set
Length of Visible Light 11h 46m
Length of Day
10h 55m
Waxing Crescent, 45% of the Moon is Illuminated
Oct 30
Waxing Crescent
Oct 30
First Quarter
Nov 6
Full
Nov 14
Last Quarter
Nov 22
New

Hourly Weather History & Observations

Time (EDT) Temp. Dew Point Humidity Pressure Visibility Wind Dir Wind Speed Gust Speed Precip Events Conditions
12:15 AM 62.6 °F 62.6 °F 100% 30.03 in 10.0 mi NW 4.6 mph - N/A   Mostly Cloudy
12:35 AM 62.6 °F 62.6 °F 100% 30.03 in 10.0 mi NW 5.8 mph - N/A   Overcast
12:55 AM 62.6 °F 62.6 °F 100% 30.03 in 10.0 mi NW 5.8 mph - N/A   Overcast
1:15 AM 62.6 °F 60.8 °F 94% 30.03 in 10.0 mi NW 8.1 mph - N/A   Overcast
1:35 AM 62.6 °F 60.8 °F 94% 30.03 in 10.0 mi NW 5.8 mph - N/A   Overcast
1:55 AM 60.8 °F 59.0 °F 94% 30.03 in 10.0 mi NNW 6.9 mph - N/A   Overcast
2:15 AM 60.8 °F 51.8 °F 72% 30.03 in 10.0 mi North 6.9 mph - N/A   Overcast
2:35 AM 59.0 °F 50.0 °F 72% 30.03 in 10.0 mi NNW 5.8 mph - N/A   Scattered Clouds
2:55 AM 59.0 °F 50.0 °F 72% 30.03 in 10.0 mi NNW 3.5 mph - N/A   Scattered Clouds
3:15 AM 59.0 °F 50.0 °F 72% 30.03 in 10.0 mi North 3.5 mph - N/A   Overcast
3:35 AM 55.4 °F 50.0 °F 82% 30.02 in 10.0 mi NNW 6.9 mph - N/A   Mostly Cloudy
3:55 AM 55.4 °F 51.8 °F 88% 30.03 in 10.0 mi NW 5.8 mph - N/A   Scattered Clouds
4:15 AM 55.4 °F 51.8 °F 88% 30.02 in 10.0 mi NNW 5.8 mph - N/A   Scattered Clouds
4:35 AM 53.6 °F 51.8 °F 94% 30.03 in 10.0 mi NW 4.6 mph - N/A   Clear
4:55 AM 53.6 °F 51.8 °F 94% 30.03 in 10.0 mi NNW 3.5 mph - N/A   Clear
5:15 AM 51.8 °F 51.8 °F 100% 30.02 in 10.0 mi Calm Calm - N/A   Clear
5:35 AM 51.8 °F 51.8 °F 100% 30.03 in 10.0 mi NW 3.5 mph - N/A   Clear
5:55 AM 50.0 °F 50.0 °F 100% 30.03 in 10.0 mi NNW 3.5 mph - N/A   Clear
6:15 AM 50.0 °F 50.0 °F 100% 30.03 in 10.0 mi NNW 4.6 mph - N/A   Clear
6:35 AM 50.0 °F 50.0 °F 100% 30.04 in 10.0 mi NNW 4.6 mph - N/A   Clear
6:55 AM 50.0 °F 50.0 °F 100% 30.04 in 10.0 mi NNW 4.6 mph - N/A   Clear
7:15 AM 48.2 °F 48.2 °F 100% 30.04 in 10.0 mi NNW 3.5 mph - N/A   Clear
7:35 AM 48.2 °F 48.2 °F 100% 30.04 in 10.0 mi Calm Calm - N/A   Clear
7:55 AM 48.2 °F 48.2 °F 100% 30.04 in 10.0 mi North 3.5 mph - N/A   Clear
8:15 AM 48.2 °F 48.2 °F 100% 30.04 in 10.0 mi North 3.5 mph - N/A   Clear
8:35 AM 50.0 °F 50.0 °F 100% 30.05 in 10.0 mi North 3.5 mph - N/A   Clear
8:55 AM 50.0 °F 50.0 °F 100% 30.06 in 10.0 mi North 3.5 mph - N/A   Clear
9:15 AM 51.8 °F 50.0 °F 94% 30.06 in 10.0 mi NNW 5.8 mph - N/A   Clear
9:35 AM 53.6 °F 46.4 °F 77% 30.07 in 10.0 mi North 5.8 mph - N/A   Clear
9:55 AM 55.4 °F 46.4 °F 72% 30.07 in 10.0 mi NNE 3.5 mph - N/A   Clear
10:15 AM 57.2 °F 46.4 °F 67% 30.07 in 10.0 mi NNE 4.6 mph - N/A   Clear
10:35 AM 59.0 °F 48.2 °F 67% 30.06 in 10.0 mi NNE 8.1 mph - N/A   Clear
10:55 AM 60.8 °F 50.0 °F 68% 30.06 in 10.0 mi NNE 5.8 mph - N/A   Clear
11:15 AM 60.8 °F 50.0 °F 68% 30.06 in 10.0 mi NNE 6.9 mph - N/A   Scattered Clouds
11:35 AM 62.6 °F 51.8 °F 68% 30.06 in 10.0 mi NE 8.1 mph - N/A   Scattered Clouds
11:55 AM 64.4 °F 51.8 °F 64% 30.05 in 10.0 mi North 4.6 mph - N/A   Scattered Clouds
12:15 PM 66.2 °F 51.8 °F 60% 30.05 in 10.0 mi NNE 5.8 mph - N/A   Mostly Cloudy
12:35 PM 68.0 °F 51.8 °F 56% 30.04 in 10.0 mi NE 8.1 mph - N/A   Scattered Clouds
12:55 PM 68.0 °F 51.8 °F 56% 30.03 in 10.0 mi Calm Calm - N/A   Scattered Clouds
1:15 PM 69.8 °F 51.8 °F 53% 30.02 in 10.0 mi East 5.8 mph - N/A   Clear
1:35 PM 69.8 °F 51.8 °F 53% 30.01 in 10.0 mi North 5.8 mph - N/A   Clear
1:55 PM 69.8 °F 50.0 °F 49% 30.00 in 10.0 mi Calm Calm - N/A   Clear
2:15 PM 69.8 °F 48.2 °F 46% 29.99 in 10.0 mi North 3.5 mph - N/A   Clear
2:35 PM 71.6 °F 48.2 °F 43% 29.98 in 10.0 mi NW 5.8 mph - N/A   Clear
2:55 PM 71.6 °F 46.4 °F 41% 29.97 in 10.0 mi North 4.6 mph - N/A   Clear
3:15 PM 71.6 °F 44.6 °F 38% 29.97 in 10.0 mi North 4.6 mph - N/A   Clear
3:35 PM 73.4 °F 44.6 °F 36% 29.96 in 10.0 mi North 5.8 mph - N/A   Clear
3:55 PM 73.4 °F 44.6 °F 36% 29.96 in 10.0 mi ENE 3.5 mph - N/A   Clear
4:15 PM 71.6 °F 42.8 °F 35% 29.96 in 10.0 mi NE 3.5 mph - N/A   Clear
4:35 PM 71.6 °F 46.4 °F 41% 29.95 in 10.0 mi North 6.9 mph - N/A   Clear
4:55 PM 71.6 °F 44.6 °F 38% 29.95 in 10.0 mi North 8.1 mph - N/A   Clear
5:15 PM 71.6 °F 44.6 °F 38% 29.95 in 10.0 mi North 5.8 mph - N/A   Clear
5:35 PM 69.8 °F 44.6 °F 40% 29.95 in 10.0 mi North 8.1 mph - N/A   Clear
5:55 PM 69.8 °F 44.6 °F 40% 29.96 in 10.0 mi NNW 5.8 mph - N/A   Clear
6:15 PM 68.0 °F 44.6 °F 43% 29.96 in 10.0 mi North 4.6 mph - N/A   Clear
6:35 PM 64.4 °F 46.4 °F 52% 29.96 in 10.0 mi NNW 3.5 mph - N/A   Clear
6:55 PM 62.6 °F 48.2 °F 59% 29.97 in 10.0 mi Calm Calm - N/A   Clear
7:15 PM 59.0 °F 48.2 °F 67% 29.97 in 10.0 mi NNW 3.5 mph - N/A   Clear
7:35 PM 59.0 °F 50.0 °F 72% 29.97 in 10.0 mi Calm Calm - N/A   Clear
7:55 PM 55.4 °F 50.0 °F 82% 29.97 in 10.0 mi NNW 3.5 mph - N/A   Clear
8:15 PM 59.0 °F 48.2 °F 67% 29.97 in 10.0 mi Calm Calm - N/A   Clear
8:35 PM 55.4 °F 48.2 °F 77% 29.97 in 10.0 mi NNW 3.5 mph - N/A   Clear
8:55 PM 55.4 °F 48.2 °F 77% 29.97 in 10.0 mi Calm Calm - N/A   Clear
9:15 PM 53.6 °F 50.0 °F 88% 29.97 in 10.0 mi North 3.5 mph - N/A   Clear
9:35 PM 53.6 °F 46.4 °F 77% 29.98 in 10.0 mi Calm Calm - N/A   Clear
9:55 PM 51.8 °F 46.4 °F 82% 29.97 in 10.0 mi Calm Calm - N/A   Clear
10:15 PM 50.0 °F 50.0 °F 100% 29.98 in 10.0 mi Calm Calm - N/A   Clear
10:35 PM 48.2 °F 48.2 °F 100% 29.98 in 10.0 mi Calm Calm - N/A   Clear
10:55 PM 46.4 °F 46.4 °F 100% 29.99 in 10.0 mi Calm Calm - N/A   Clear
11:15 PM 46.4 °F 46.4 °F 100% 29.99 in 10.0 mi Calm Calm - N/A   Clear
11:55 PM 46.4 °F 46.4 °F 100% 29.98 in 10.0 mi Calm Calm - N/A   Clear